North River — WYR2549 — position and weather

sailwx.info

Track history (hours):
 
Tides and Currents Weather Stations Pressure Air Temp Water Temp Dewpoint Dewpoint Depression Visibility Wind Speed Wind Dir Waves Ship Positions

North River

Owner: CITY OF NEW YORK, Brooklyn, NY. More information available from US FCC via Universal Licensing System and Coast Guard Vessel Documentation Center.

Last reported at 2016-Dec-03 13:29 UTC. Time now 2016-Dec-03 13:44 UTC.
Position N 40°47' W 073°55'.

Length 78 m.

Type: Tanker. MMSI: 367074110.

Date/timePositionNaut miles runAvg speedWind from/ knotsBaromVisibWave heightAir tempDewpointWater temp
2016-Dec-03 13:29N 40°47' W 073°55'1 1.4
2016-Dec-03 12:33N 40°47' W 073°54'0 0.0
2016-Dec-01 16:20N 40°47' W 073°54'0 0.0
2016-Dec-01 15:33N 40°47' W 073°54'0 0.0
2016-Nov-30 00:22N 40°47' W 073°53'1 1.5
2016-Nov-29 23:33N 40°48' W 073°53'0 0.2
2016-Nov-29 22:32N 40°48' W 073°53'1111.8
2016-Nov-29 21:34N 40°39' W 074°02'0 0.0
2016-Nov-29 20:33N 40°39' W 074°02'0 0.0
2016-Nov-29 19:33N 40°39' W 074°02'4 4.1
2016-Nov-29 18:33N 40°38' W 074°08'0 0.0
2016-Nov-29 17:33N 40°38' W 074°08'1 0.7
2016-Nov-29 16:33N 40°39' W 074°07'4 3.6
2016-Nov-29 15:33N 40°39' W 074°02'0 0.0
2016-Nov-29 14:33N 40°39' W 074°02'2 2.0
2016-Nov-29 13:33N 40°41' W 074°01'10 9.6
2016-Nov-29 12:33N 40°48' W 073°54'1 0.1
2016-Nov-28 20:09N 40°47' W 073°53'1 1.8
2016-Nov-28 19:28N 40°48' W 073°53'0 0.0
2016-Nov-28 18:29N 40°48' W 073°53'0 0.1
2016-Nov-28 17:33N 40°48' W 073°53'8 7.7
2016-Nov-28 16:33N 40°42' W 073°60'7 7.4
2016-Nov-28 15:33N 40°50' W 073°58'0 0.0
2016-Nov-28 14:33N 40°50' W 073°58'4 4.2
2016-Nov-28 13:33N 40°46' W 074°00'4 4.1
2016-Nov-28 12:33N 40°47' W 073°55'0 0.0
2016-Nov-27 17:25N 40°47' W 073°55'6 7.6
2016-Nov-27 16:34N 40°42' W 074°00'3 3.4
2016-Nov-27 15:33N 40°39' W 074°02'0 0.0
2016-Nov-27 14:34N 40°39' W 074°02'5 4.9
2016-Nov-27 13:33N 40°43' W 073°58'5 0.4
2016-Nov-26 22:33N 40°47' W 073°55'10 9.9
2016-Nov-26 21:33N 40°39' W 074°02'0 0.3
2016-Nov-26 20:33N 40°39' W 074°02'0 0.0
2016-Nov-26 19:33N 40°39' W 074°02'4 3.6
2016-Nov-26 18:33N 40°39' W 074°07'1 0.6
2016-Nov-26 17:33N 40°38' W 074°08'0 0.0
2016-Nov-26 16:33N 40°38' W 074°08'4 4.2
2016-Nov-26 15:33N 40°39' W 074°02'0 0.0
2016-Nov-26 14:33N 40°39' W 074°02'0 0.0
2016-Nov-26 13:33N 40°39' W 074°02'9 8.7
2016-Nov-26 12:33N 40°46' W 073°57'1 1.3
2016-Nov-26 11:33N 40°47' W 073°55'2 0.1
2016-Nov-25 17:33N 40°46' W 073°57'8 8.1
2016-Nov-25 16:33N 40°39' W 074°02'0 0.0
2016-Nov-25 15:33N 40°39' W 074°02'0 0.0
2016-Nov-25 14:33N 40°39' W 074°02'9 8.5
2016-Nov-25 13:33N 40°46' W 073°57'3 0.1
2016-Nov-23 22:34N 40°43' W 073°58'9 8.6
2016-Nov-23 21:33N 40°38' W 074°08'0 0.0
2016-Nov-23 20:33N 40°38' W 074°08'0 0.0
2016-Nov-23 19:33N 40°38' W 074°08'13 6.7
2016-Nov-23 17:33N 40°49' W 073°58'0 0.0
2016-Nov-23 16:33N 40°49' W 073°58'7 7.3
2016-Nov-23 15:33N 40°42' W 073°59'  
Track history (hours):
 
Tides and Currents Weather Stations Pressure Air Temp Water Temp Dewpoint Dewpoint Depression Visibility Wind Speed Wind Dir Waves Ship Positions

North River

Owner: CITY OF NEW YORK, Brooklyn, NY. More information available from US FCC via Universal Licensing System and Coast Guard Vessel Documentation Center.

Last reported at 2016-Dec-03 13:29 UTC. Time now 2016-Dec-03 13:44 UTC.
Position N 40°47' W 073°55'.

Length 78 m.

Type: Tanker. MMSI: 367074110.

Date/timePositionNaut miles runAvg speedWind from/ knotsBaromVisibWave heightAir tempDewpointWater temp
2016-Dec-03 13:29N 40°47' W 073°55'1 1.4
2016-Dec-03 12:33N 40°47' W 073°54'0 0.0
2016-Dec-01 16:20N 40°47' W 073°54'0 0.0
2016-Dec-01 15:33N 40°47' W 073°54'0 0.0
2016-Nov-30 00:22N 40°47' W 073°53'1 1.5
2016-Nov-29 23:33N 40°48' W 073°53'0 0.2
2016-Nov-29 22:32N 40°48' W 073°53'1111.8
2016-Nov-29 21:34N 40°39' W 074°02'0 0.0
2016-Nov-29 20:33N 40°39' W 074°02'0 0.0
2016-Nov-29 19:33N 40°39' W 074°02'4 4.1
2016-Nov-29 18:33N 40°38' W 074°08'0 0.0
2016-Nov-29 17:33N 40°38' W 074°08'1 0.7
2016-Nov-29 16:33N 40°39' W 074°07'4 3.6
2016-Nov-29 15:33N 40°39' W 074°02'0 0.0
2016-Nov-29 14:33N 40°39' W 074°02'2 2.0
2016-Nov-29 13:33N 40°41' W 074°01'10 9.6
2016-Nov-29 12:33N 40°48' W 073°54'1 0.1
2016-Nov-28 20:09N 40°47' W 073°53'1 1.8
2016-Nov-28 19:28N 40°48' W 073°53'0 0.0
2016-Nov-28 18:29N 40°48' W 073°53'0 0.1
2016-Nov-28 17:33N 40°48' W 073°53'8 7.7
2016-Nov-28 16:33N 40°42' W 073°60'7 7.4
2016-Nov-28 15:33N 40°50' W 073°58'0 0.0
2016-Nov-28 14:33N 40°50' W 073°58'4 4.2
2016-Nov-28 13:33N 40°46' W 074°00'4 4.1
2016-Nov-28 12:33N 40°47' W 073°55'0 0.0
2016-Nov-27 17:25N 40°47' W 073°55'6 7.6
2016-Nov-27 16:34N 40°42' W 074°00'3 3.4
2016-Nov-27 15:33N 40°39' W 074°02'0 0.0
2016-Nov-27 14:34N 40°39' W 074°02'5 4.9
2016-Nov-27 13:33N 40°43' W 073°58'5 0.4
2016-Nov-26 22:33N 40°47' W 073°55'10 9.9
2016-Nov-26 21:33N 40°39' W 074°02'0 0.3
2016-Nov-26 20:33N 40°39' W 074°02'0 0.0
2016-Nov-26 19:33N 40°39' W 074°02'4 3.6
2016-Nov-26 18:33N 40°39' W 074°07'1 0.6
2016-Nov-26 17:33N 40°38' W 074°08'0 0.0
2016-Nov-26 16:33N 40°38' W 074°08'4 4.2
2016-Nov-26 15:33N 40°39' W 074°02'0 0.0
2016-Nov-26 14:33N 40°39' W 074°02'0 0.0
2016-Nov-26 13:33N 40°39' W 074°02'9 8.7
2016-Nov-26 12:33N 40°46' W 073°57'1 1.3
2016-Nov-26 11:33N 40°47' W 073°55'2 0.1
2016-Nov-25 17:33N 40°46' W 073°57'8 8.1
2016-Nov-25 16:33N 40°39' W 074°02'0 0.0
2016-Nov-25 15:33N 40°39' W 074°02'0 0.0
2016-Nov-25 14:33N 40°39' W 074°02'9 8.5
2016-Nov-25 13:33N 40°46' W 073°57'3 0.1
2016-Nov-23 22:34N 40°43' W 073°58'9 8.6
2016-Nov-23 21:33N 40°38' W 074°08'0 0.0
2016-Nov-23 20:33N 40°38' W 074°08'0 0.0
2016-Nov-23 19:33N 40°38' W 074°08'13 6.7
2016-Nov-23 17:33N 40°49' W 073°58'0 0.0
2016-Nov-23 16:33N 40°49' W 073°58'7 7.3
2016-Nov-23 15:33N 40°42' W 073°59'  

Dump ship's entire track history